Terminal Aerodrome Forecast
Issued by NWS

Home | Current Version | Previous Version | Graphics & Text | Print | Product List | Glossary On
Versions: 1 2 3 4 5 6 7 8 9 10 11 12 13 14 15 16
000
FTUS43 KBIS 110500
TAFMOT
TAF
KMOT 110528Z 1106/1206 VRB06KT P6SM BKN050
     FM110700 31007KT P6SM FEW070
     FM110900 32006KT P6SM SKC
     FM111500 33011KT P6SM FEW120 SCT150
     FM111800 32011KT P6SM SCT090 BKN120
     FM120100 31007KT P6SM SCT120=

USA.gov is the U.S. government's official web portal to all federal, state and local government web resources and services.